createdAt,value
2016-12-21T00:00:09.147Z,1.4
2016-12-21T00:01:43.031Z,1.39
2016-12-21T00:03:16.374Z,1.4
2016-12-21T00:04:49.600Z,1.39
2016-12-21T00:06:22.601Z,1.38
2016-12-21T00:07:56.167Z,1.35
2016-12-21T00:09:30.112Z,1.33
2016-12-21T00:11:03.599Z,1.32
2016-12-21T00:12:37.304Z,1.33
2016-12-21T00:14:31.629Z,1.33
2016-12-21T00:16:04.296Z,1.37
2016-12-21T00:17:41.069Z,1.37
2016-12-21T00:19:18.127Z,1.35
2016-12-21T00:20:54.070Z,1.35
2016-12-21T00:22:49.032Z,1.37
2016-12-21T00:24:25.168Z,1.37
2016-12-21T00:25:53.426Z,1.39
2016-12-21T00:27:27.584Z,1.4
2016-12-21T00:29:01.167Z,1.41
2016-12-21T00:30:34.256Z,1.42
2016-12-21T00:32:08.819Z,1.42
2016-12-21T00:33:42.245Z,1.42
2016-12-21T00:35:45.178Z,1.4
2016-12-21T00:37:18.644Z,1.4
2016-12-21T00:38:52.012Z,1.38
2016-12-21T00:40:25.436Z,1.39
2016-12-21T00:42:00.943Z,1.4
2016-12-21T00:43:14.845Z,1.39
2016-12-21T00:44:29.450Z,1.38
2016-12-21T00:45:43.813Z,1.38
2016-12-21T00:46:59.307Z,1.37
2016-12-21T00:48:14.478Z,1.37
2016-12-21T00:49:28.728Z,1.35
2016-12-21T00:50:42.462Z,1.32
2016-12-21T00:51:56.990Z,1.31
2016-12-21T00:53:11.349Z,1.29
2016-12-21T00:54:26.762Z,1.27
2016-12-21T00:55:55.333Z,1.27
2016-12-21T00:57:09.509Z,1.27
2016-12-21T00:58:23.586Z,1.27
2016-12-21T00:59:37.702Z,1.28
2016-12-21T01:00:51.778Z,1.29
2016-12-21T01:02:05.840Z,1.31
2016-12-21T01:03:19.648Z,1.31
2016-12-21T01:04:33.602Z,1.32
2016-12-21T01:05:47.297Z,1.32
2016-12-21T01:07:01.232Z,1.32
2016-12-21T01:08:15.078Z,1.32
2016-12-21T01:09:28.937Z,1.31
2016-12-21T01:10:43.143Z,1.3
2016-12-21T01:11:56.852Z,1.28
2016-12-21T01:13:10.846Z,1.27
2016-12-21T01:14:24.714Z,1.24
2016-12-21T01:15:38.517Z,1.23
2016-12-21T01:16:52.570Z,1.19
2016-12-21T01:18:06.423Z,1.17
2016-12-21T01:19:20.695Z,1.16
2016-12-21T01:20:34.970Z,1.14
2016-12-21T01:21:48.730Z,1.14
2016-12-21T01:23:02.721Z,1.13
2016-12-21T01:24:16.812Z,1.13
2016-12-21T01:25:30.605Z,1.11
2016-12-21T01:26:44.354Z,1.09
2016-12-21T01:27:58.495Z,1.07
2016-12-21T01:29:12.978Z,1.06
2016-12-21T01:30:26.742Z,1.06
2016-12-21T01:31:40.460Z,1.06
2016-12-21T01:32:54.243Z,1.08
2016-12-21T01:34:09.238Z,1.1
2016-12-21T01:35:23.324Z,1.11
2016-12-21T01:36:37.886Z,1.13
2016-12-21T01:37:52.273Z,1.15
2016-12-21T01:39:06.194Z,1.16
2016-12-21T01:40:20.932Z,1.15
2016-12-21T01:41:35.428Z,1.14
2016-12-21T01:42:49.216Z,1.14
2016-12-21T01:44:05.251Z,1.14
2016-12-21T01:45:21.076Z,1.14
2016-12-21T01:46:36.784Z,1.15
2016-12-21T01:47:50.990Z,1.15
2016-12-21T01:49:05.339Z,1.15
2016-12-21T01:50:19.083Z,1.14
2016-12-21T01:51:33.552Z,1.15
2016-12-21T01:52:49.329Z,1.14
2016-12-21T01:54:04.955Z,1.14
2016-12-21T01:55:19.940Z,1.15
2016-12-21T01:56:35.271Z,1.16
2016-12-21T01:57:50.624Z,1.17
2016-12-21T01:59:09.252Z,1.18
2016-12-21T02:00:24.052Z,1.18
2016-12-21T02:04:20.827Z,1.19
2016-12-21T02:05:35.063Z,1.19
2016-12-21T02:06:48.812Z,1.2
2016-12-21T02:08:03.024Z,1.2
2016-12-21T02:09:17.455Z,1.2
2016-12-21T02:10:31.163Z,1.19
2016-12-21T02:11:59.960Z,1.19
2016-12-21T02:13:14.087Z,1.17
2016-12-21T02:14:28.111Z,1.15
2016-12-21T02:15:42.108Z,1.14
2016-12-21T02:16:56.285Z,1.14
2016-12-21T02:18:10.423Z,1.15
2016-12-21T02:19:24.507Z,1.15
2016-12-21T02:20:38.726Z,1.16
2016-12-21T02:21:52.487Z,1.15
2016-12-21T02:23:06.678Z,1.16
2016-12-21T02:24:21.509Z,1.18
2016-12-21T02:25:35.507Z,1.18
2016-12-21T02:26:49.589Z,1.19
2016-12-21T02:28:03.333Z,1.2
2016-12-21T02:29:17.260Z,1.22
2016-12-21T02:30:31.526Z,1.21
2016-12-21T02:31:45.217Z,1.22
2016-12-21T02:32:59.272Z,1.23
2016-12-21T02:34:14.057Z,1.24
2016-12-21T02:35:27.823Z,1.25
2016-12-21T02:36:41.750Z,1.27
2016-12-21T02:37:55.429Z,1.31
2016-12-21T02:39:09.360Z,1.33
2016-12-21T02:40:23.430Z,1.38
2016-12-21T02:41:37.215Z,1.41
2016-12-21T02:42:51.970Z,1.44
2016-12-21T02:44:05.782Z,1.47
2016-12-21T02:45:19.620Z,1.49
2016-12-21T02:46:33.601Z,1.51
2016-12-21T02:47:48.385Z,1.55
2016-12-21T02:49:03.256Z,1.57
2016-12-21T02:50:17.252Z,1.59
2016-12-21T02:51:31.314Z,1.63
2016-12-21T02:52:45.459Z,1.66
2016-12-21T02:53:59.647Z,1.68
2016-12-21T02:55:14.101Z,1.71
2016-12-21T02:56:27.821Z,1.73
2016-12-21T02:57:41.607Z,1.75
2016-12-21T02:58:55.502Z,1.79
2016-12-21T03:00:09.568Z,1.82
2016-12-21T03:01:24.536Z,1.84
2016-12-21T03:02:38.589Z,1.88
2016-12-21T03:03:52.723Z,1.9
2016-12-21T03:05:07.122Z,1.92
2016-12-21T03:06:20.825Z,1.96
2016-12-21T03:07:34.814Z,1.99
2016-12-21T03:08:49.202Z,2.01
2016-12-21T03:10:03.989Z,2.06
2016-12-21T03:11:18.086Z,2.08
2016-12-21T03:12:31.965Z,2.11
2016-12-21T03:13:46.258Z,2.09
2016-12-21T03:15:00.559Z,2.08
2016-12-21T03:16:15.239Z,2.07
2016-12-21T03:17:31.870Z,2.05
2016-12-21T03:18:45.558Z,2.03
2016-12-21T03:19:59.613Z,2.03
2016-12-21T03:21:13.490Z,2.06
2016-12-21T03:22:27.568Z,2.09
2016-12-21T03:23:42.487Z,2.11
2016-12-21T03:24:56.600Z,2.14
2016-12-21T03:26:11.289Z,2.17
2016-12-21T03:27:25.778Z,2.21
2016-12-21T03:28:41.339Z,2.23
2016-12-21T03:29:56.053Z,2.25
2016-12-21T03:31:10.734Z,2.29
2016-12-21T03:32:26.149Z,2.33
2016-12-21T03:33:42.573Z,2.37
2016-12-21T03:34:59.078Z,2.41
2016-12-21T03:36:15.513Z,2.45
2016-12-21T03:37:33.353Z,2.48
2016-12-21T03:38:49.717Z,2.52
2016-12-21T03:40:04.005Z,2.54
2016-12-21T03:41:18.606Z,2.56
2016-12-21T03:42:32.882Z,2.57
2016-12-21T03:43:47.241Z,2.6
2016-12-21T03:45:01.509Z,2.62
2016-12-21T03:46:15.508Z,2.63
2016-12-21T03:47:29.244Z,2.64
2016-12-21T03:48:44.845Z,2.64
2016-12-21T03:50:00.725Z,2.63
2016-12-21T03:51:15.991Z,2.64
2016-12-21T03:52:30.423Z,2.65
2016-12-21T03:53:46.358Z,2.66
2016-12-21T03:55:00.970Z,2.67
2016-12-21T03:56:16.371Z,2.67
2016-12-21T03:57:31.651Z,2.67
2016-12-21T03:58:45.668Z,2.67
2016-12-21T03:59:59.680Z,2.67
2016-12-21T04:01:14.087Z,2.67
2016-12-21T04:02:27.791Z,2.65
2016-12-21T04:03:42.169Z,2.66
2016-12-21T04:04:57.024Z,2.67
2016-12-21T04:06:10.786Z,2.66
2016-12-21T04:07:24.765Z,2.67
2016-12-21T04:08:38.796Z,2.67
2016-12-21T04:09:53.069Z,2.69
2016-12-21T04:11:07.050Z,2.67
2016-12-21T04:12:20.730Z,2.61
2016-12-21T04:13:34.561Z,2.57
2016-12-21T04:14:49.569Z,2.53
2016-12-21T04:16:03.515Z,2.51
2016-12-21T04:17:17.207Z,2.52
2016-12-21T04:18:31.273Z,2.54
2016-12-21T04:19:45.064Z,2.56
2016-12-21T04:20:59.024Z,2.58
2016-12-21T04:22:13.301Z,2.59
2016-12-21T04:23:27.382Z,2.59
2016-12-21T04:24:41.477Z,2.58
2016-12-21T04:25:55.464Z,2.56
2016-12-21T04:27:09.823Z,2.55
2016-12-21T04:28:24.451Z,2.55
2016-12-21T04:29:38.165Z,2.55
2016-12-21T04:30:51.894Z,2.53
2016-12-21T04:32:05.899Z,2.52
2016-12-21T04:33:19.947Z,2.49
2016-12-21T04:34:36.192Z,2.46
2016-12-21T04:35:49.919Z,2.43
2016-12-21T04:37:04.055Z,2.4
2016-12-21T04:38:17.900Z,2.39
2016-12-21T04:39:31.980Z,2.37
2016-12-21T04:40:46.211Z,2.37
2016-12-21T04:41:59.957Z,2.36
2016-12-21T04:43:14.092Z,2.37
2016-12-21T04:44:27.765Z,2.36
2016-12-21T04:45:42.584Z,2.38
2016-12-21T04:46:56.611Z,2.39
2016-12-21T04:48:10.511Z,2.42
2016-12-21T04:49:24.785Z,2.44
2016-12-21T04:50:39.439Z,2.44
2016-12-21T04:51:53.786Z,2.45
2016-12-21T04:53:12.048Z,2.44
2016-12-21T04:56:01.207Z,2.4
2016-12-21T04:57:20.207Z,2.41
2016-12-21T04:58:37.577Z,2.41
2016-12-21T04:59:55.125Z,2.43
2016-12-21T05:01:10.329Z,2.45
2016-12-21T05:02:24.644Z,2.47
2016-12-21T05:03:38.680Z,2.46
2016-12-21T05:04:52.826Z,2.44
2016-12-21T05:06:06.811Z,2.42
2016-12-21T05:07:20.853Z,2.41
2016-12-21T05:08:34.736Z,2.39
2016-12-21T05:09:50.860Z,2.38
2016-12-21T05:11:06.097Z,2.37
2016-12-21T05:12:20.993Z,2.36
2016-12-21T05:13:34.678Z,2.34
2016-12-21T05:14:48.956Z,2.33
2016-12-21T05:16:03.281Z,2.34
2016-12-21T05:17:17.374Z,2.35
2016-12-21T05:18:31.677Z,2.39
2016-12-21T05:19:45.525Z,2.4
2016-12-21T05:20:59.702Z,2.41
2016-12-21T05:22:13.731Z,2.41
2016-12-21T05:23:27.507Z,2.42
2016-12-21T05:24:41.925Z,2.42
2016-12-21T05:25:56.151Z,2.4
2016-12-21T05:27:10.294Z,2.41
2016-12-21T05:28:26.569Z,2.42
2016-12-21T05:29:42.867Z,2.44
2016-12-21T05:30:59.792Z,2.43
2016-12-21T05:33:48.201Z,2.43
2016-12-21T05:35:05.172Z,2.43
2016-12-21T05:36:20.897Z,2.44
2016-12-21T05:37:35.670Z,2.45
2016-12-21T05:38:50.670Z,2.48
2016-12-21T05:40:05.849Z,2.51
2016-12-21T05:41:20.878Z,2.53
2016-12-21T05:42:35.175Z,2.54
2016-12-21T05:43:49.307Z,2.55
2016-12-21T05:45:03.126Z,2.58
2016-12-21T05:46:17.008Z,2.6
2016-12-21T05:47:30.929Z,2.64
2016-12-21T05:48:45.240Z,2.67
2016-12-21T05:49:59.486Z,2.68
2016-12-21T05:51:13.515Z,2.68
2016-12-21T05:52:30.536Z,2.67
2016-12-21T05:53:44.944Z,2.69
2016-12-21T05:55:00.200Z,2.71
2016-12-21T05:56:14.080Z,2.72
2016-12-21T05:57:28.548Z,2.75
2016-12-21T05:58:42.731Z,2.73
2016-12-21T05:59:56.599Z,2.72
2016-12-21T06:01:10.628Z,2.71
2016-12-21T06:02:24.512Z,2.71
2016-12-21T06:03:38.220Z,2.71
2016-12-21T06:04:52.167Z,2.71
2016-12-21T06:06:06.650Z,2.73
2016-12-21T06:07:20.653Z,2.76
2016-12-21T06:08:34.345Z,2.77
2016-12-21T06:09:48.018Z,2.8
2016-12-21T06:11:03.335Z,2.84
2016-12-21T06:12:18.380Z,2.85
2016-12-21T06:13:34.185Z,2.85
2016-12-21T06:14:50.026Z,2.86
2016-12-21T06:16:05.732Z,2.86
2016-12-21T06:17:20.834Z,2.88
2016-12-21T06:18:36.758Z,2.91
2016-12-21T06:19:51.870Z,2.91
2016-12-21T06:21:07.161Z,2.92
2016-12-21T06:22:23.471Z,2.9
2016-12-21T06:23:41.945Z,2.9
2016-12-21T06:25:14.266Z,2.89
2016-12-21T06:26:32.706Z,2.88
2016-12-21T06:27:50.358Z,2.86
2016-12-21T06:29:08.258Z,2.88
2016-12-21T06:30:24.983Z,2.86
2016-12-21T06:31:42.319Z,2.86
2016-12-21T06:33:00.391Z,2.86
2016-12-21T06:34:16.730Z,2.86
2016-12-21T06:35:32.018Z,2.86
2016-12-21T06:36:46.333Z,2.86
2016-12-21T06:38:00.234Z,2.87
2016-12-21T06:39:14.595Z,2.88
2016-12-21T06:40:28.368Z,2.88
2016-12-21T06:41:43.006Z,2.87
2016-12-21T06:42:58.748Z,2.88
2016-12-21T06:44:13.861Z,2.9
2016-12-21T06:45:29.345Z,2.9
2016-12-21T06:46:45.612Z,2.89
2016-12-21T06:48:00.112Z,2.91
2016-12-21T06:49:14.489Z,2.88
2016-12-21T06:50:29.152Z,2.87
2016-12-21T06:51:43.569Z,2.84
2016-12-21T06:52:57.872Z,2.83
2016-12-21T06:54:12.162Z,2.8
2016-12-21T06:55:26.509Z,2.81
2016-12-21T06:56:40.297Z,2.82
2016-12-21T06:57:54.333Z,2.85
2016-12-21T06:59:09.565Z,2.88
2016-12-21T07:00:24.928Z,2.9
2016-12-21T07:01:39.810Z,2.9
2016-12-21T07:04:26.203Z,2.92
2016-12-21T07:05:41.206Z,2.89
2016-12-21T07:06:54.946Z,2.88
2016-12-21T07:08:08.839Z,2.87
2016-12-21T07:09:23.783Z,2.88
2016-12-21T07:10:40.398Z,2.88
2016-12-21T07:11:54.856Z,2.88
2016-12-21T07:13:09.666Z,2.88
2016-12-21T07:14:24.148Z,2.9
2016-12-21T07:15:38.051Z,2.88
2016-12-21T07:16:52.130Z,2.86
2016-12-21T07:18:20.988Z,2.8
2016-12-21T07:19:35.224Z,2.75
2016-12-21T07:20:49.424Z,2.73
2016-12-21T07:22:04.229Z,2.73
2016-12-21T07:23:18.787Z,2.77
2016-12-21T07:24:32.783Z,2.86
2016-12-21T07:25:47.252Z,2.93
2016-12-21T07:27:02.381Z,2.99
2016-12-21T07:28:20.230Z,3.06
2016-12-21T07:29:39.049Z,3.13
2016-12-21T07:30:56.449Z,3.19
2016-12-21T07:32:14.674Z,3.23
2016-12-21T07:33:31.356Z,3.27
2016-12-21T07:34:45.491Z,3.27
2016-12-21T07:36:00.584Z,3.28
2016-12-21T07:37:14.724Z,3.28
2016-12-21T07:38:28.764Z,3.3
2016-12-21T07:39:43.143Z,3.31
2016-12-21T07:40:57.278Z,3.34
2016-12-21T07:42:11.303Z,3.36
2016-12-21T07:43:25.743Z,3.34
2016-12-21T07:44:39.886Z,3.36
2016-12-21T07:45:53.679Z,3.4
2016-12-21T07:47:22.767Z,3.41
2016-12-21T07:48:37.071Z,3.43
2016-12-21T07:49:51.177Z,3.44
2016-12-21T07:51:05.280Z,3.44
2016-12-21T07:52:18.969Z,3.43
2016-12-21T07:53:33.057Z,3.41
2016-12-21T07:54:47.295Z,3.41
2016-12-21T07:56:01.700Z,3.38
2016-12-21T07:57:16.164Z,3.36
2016-12-21T07:58:29.886Z,3.3
2016-12-21T07:59:44.201Z,3.26
2016-12-21T08:00:58.197Z,3.22
2016-12-21T08:02:12.288Z,3.19
2016-12-21T08:03:26.099Z,3.15
2016-12-21T08:04:40.284Z,3.13
2016-12-21T08:05:54.085Z,3.13
2016-12-21T08:07:08.903Z,3.14
2016-12-21T08:08:23.141Z,3.13
2016-12-21T08:09:38.079Z,3.12
2016-12-21T08:10:52.768Z,3.1
2016-12-21T08:12:08.026Z,3.09
2016-12-21T08:13:22.267Z,3.08
2016-12-21T08:14:36.611Z,3.08
2016-12-21T08:15:50.744Z,3.1
2016-12-21T08:17:04.560Z,3.09
2016-12-21T08:18:18.600Z,3.11
2016-12-21T08:19:32.961Z,3.12
2016-12-21T08:20:47.042Z,3.12
2016-12-21T08:22:01.693Z,3.12
2016-12-21T08:23:15.383Z,3.13
2016-12-21T08:24:29.208Z,3.18
2016-12-21T08:25:43.853Z,3.2
2016-12-21T08:26:57.948Z,3.23
2016-12-21T08:28:14.689Z,3.24
2016-12-21T08:29:28.834Z,3.26
2016-12-21T08:30:42.656Z,3.28
2016-12-21T08:31:56.735Z,3.29
2016-12-21T08:33:11.482Z,3.29
2016-12-21T08:34:26.137Z,3.29
2016-12-21T08:35:39.936Z,3.29
2016-12-21T08:36:53.720Z,3.29
2016-12-21T08:38:22.623Z,3.29
2016-12-21T08:39:36.663Z,3.3
2016-12-21T08:40:50.970Z,3.31
2016-12-21T08:42:05.025Z,3.32
2016-12-21T08:43:19.327Z,3.36
2016-12-21T08:44:34.025Z,3.35
2016-12-21T08:45:48.223Z,3.35
2016-12-21T08:47:02.669Z,3.37
2016-12-21T08:48:17.602Z,3.38
2016-12-21T08:49:31.966Z,3.42
2016-12-21T08:51:02.038Z,3.45
2016-12-21T08:52:32.278Z,3.49
2016-12-21T08:54:15.935Z,3.52
2016-12-21T08:55:45.973Z,3.53
2016-12-21T08:57:02.313Z,3.54
2016-12-21T08:58:19.791Z,3.53
2016-12-21T08:59:37.062Z,3.53
2016-12-21T09:00:54.419Z,3.53
2016-12-21T09:02:11.783Z,3.53
2016-12-21T09:03:29.873Z,3.53
2016-12-21T09:04:48.272Z,3.54
2016-12-21T09:06:06.464Z,3.54
2016-12-21T09:07:24.595Z,3.55
2016-12-21T09:08:39.214Z,3.57
2016-12-21T09:09:54.740Z,3.57
2016-12-21T09:11:11.336Z,3.57
2016-12-21T09:12:28.834Z,3.58
2016-12-21T09:13:45.776Z,3.62
2016-12-21T09:15:03.510Z,3.63
2016-12-21T09:16:21.304Z,3.64
2016-12-21T09:17:39.065Z,3.63
2016-12-21T09:18:57.238Z,3.59
2016-12-21T09:20:15.340Z,3.57
2016-12-21T09:21:33.010Z,3.52
2016-12-21T09:22:49.708Z,3.46
2016-12-21T09:24:05.565Z,3.45
2016-12-21T09:25:20.935Z,3.43
2016-12-21T09:26:35.854Z,3.4
2016-12-21T09:27:51.410Z,3.38
2016-12-21T09:29:08.496Z,3.33
2016-12-21T09:30:26.367Z,3.32
2016-12-21T09:31:44.752Z,3.34
2016-12-21T09:33:03.300Z,3.34
2016-12-21T09:34:19.877Z,3.34
2016-12-21T09:35:37.268Z,3.4
2016-12-21T09:36:54.515Z,3.43
2016-12-21T09:38:12.153Z,3.45
2016-12-21T09:39:27.597Z,3.44
2016-12-21T09:40:58.273Z,3.44
2016-12-21T09:43:44.132Z,3.49
2016-12-21T09:44:58.761Z,3.49
2016-12-21T09:46:14.186Z,3.49
2016-12-21T09:47:28.513Z,3.48
2016-12-21T09:48:45.896Z,3.49
2016-12-21T09:50:00.316Z,3.48
2016-12-21T09:51:15.419Z,3.43
2016-12-21T09:52:30.208Z,3.41
2016-12-21T09:53:44.563Z,3.4
2016-12-21T09:54:59.088Z,3.39
2016-12-21T09:56:13.232Z,3.38
2016-12-21T09:57:28.226Z,3.38
2016-12-21T09:58:41.930Z,3.38
2016-12-21T09:59:56.262Z,3.38
2016-12-21T10:01:10.686Z,3.38
2016-12-21T10:02:25.047Z,3.4
2016-12-21T10:03:53.612Z,3.42
2016-12-21T10:05:07.378Z,3.47
2016-12-21T10:06:21.432Z,3.53
2016-12-21T10:07:35.578Z,3.56
2016-12-21T10:08:49.593Z,3.59
2016-12-21T10:10:04.620Z,3.6
2016-12-21T10:11:20.951Z,3.61
2016-12-21T10:12:37.785Z,3.62
2016-12-21T10:13:54.616Z,3.63
2016-12-21T10:15:12.288Z,3.62
2016-12-21T10:16:28.909Z,3.63
2016-12-21T10:17:47.927Z,3.65
2016-12-21T10:19:04.615Z,3.65
2016-12-21T10:20:21.531Z,3.65
2016-12-21T10:21:36.627Z,3.64
2016-12-21T10:22:51.290Z,3.65
2016-12-21T10:24:07.343Z,3.63
2016-12-21T10:25:24.662Z,3.62
2016-12-21T10:26:43.335Z,3.61
2016-12-21T10:28:00.939Z,3.61
2016-12-21T10:29:17.636Z,3.62
2016-12-21T10:30:35.345Z,3.61
2016-12-21T10:31:50.715Z,3.63
2016-12-21T10:33:20.897Z,3.66
2016-12-21T10:34:37.185Z,3.69
2016-12-21T10:36:07.296Z,3.72
2016-12-21T10:37:22.815Z,3.75
2016-12-21T10:38:37.842Z,3.77
2016-12-21T10:39:53.591Z,3.76
2016-12-21T10:41:08.377Z,3.7
2016-12-21T10:42:23.335Z,3.65
2016-12-21T10:43:38.341Z,3.62
2016-12-21T10:44:53.550Z,3.6
2016-12-21T10:46:23.573Z,3.59
2016-12-21T10:47:37.767Z,3.56
2016-12-21T10:48:52.285Z,3.54
2016-12-21T10:50:06.307Z,3.52
2016-12-21T10:51:20.983Z,3.47
2016-12-21T10:52:35.688Z,3.43
2016-12-21T10:53:51.191Z,3.43
2016-12-21T10:55:08.487Z,3.44
2016-12-21T10:56:25.205Z,3.43
2016-12-21T10:57:42.612Z,3.42
2016-12-21T10:58:59.773Z,3.41
2016-12-21T11:00:15.067Z,3.37
2016-12-21T11:01:29.836Z,3.37
2016-12-21T11:02:44.972Z,3.38
2016-12-21T11:04:00.431Z,3.38
2016-12-21T11:05:15.949Z,3.4
2016-12-21T11:06:31.013Z,3.39
2016-12-21T11:07:51.212Z,3.38
2016-12-21T11:09:18.883Z,3.37
2016-12-21T11:10:39.884Z,3.39
2016-12-21T11:11:55.277Z,3.39
2016-12-21T11:13:12.059Z,3.4
2016-12-21T11:14:29.402Z,3.39
2016-12-21T11:16:01.322Z,3.39
2016-12-21T11:17:17.691Z,3.39
2016-12-21T11:20:07.591Z,3.43
2016-12-21T11:21:24.952Z,3.44
2016-12-21T11:24:30.224Z,3.45
2016-12-21T11:25:48.303Z,3.48
2016-12-21T11:27:05.448Z,3.46
2016-12-21T11:28:21.766Z,3.45
2016-12-21T11:29:53.716Z,3.45
2016-12-21T11:31:12.785Z,3.43
2016-12-21T11:32:28.295Z,3.45
2016-12-21T11:33:43.231Z,3.51
2016-12-21T11:35:00.609Z,3.54
2016-12-21T11:36:16.908Z,3.55
2016-12-21T11:37:34.138Z,3.54
2016-12-21T11:38:51.139Z,3.54
2016-12-21T11:40:07.810Z,3.56
2016-12-21T11:41:24.088Z,3.56
2016-12-21T11:42:40.081Z,3.55
2016-12-21T11:44:11.060Z,3.53
2016-12-21T11:45:48.052Z,3.55
2016-12-21T11:47:20.686Z,3.58
2016-12-21T11:48:38.799Z,3.6
2016-12-21T11:49:58.856Z,3.62
2016-12-21T11:51:16.463Z,3.64
2016-12-21T11:52:39.952Z,3.66
2016-12-21T11:53:58.900Z,3.68
2016-12-21T11:55:13.494Z,3.7
2016-12-21T11:56:27.914Z,3.72
2016-12-21T11:57:42.987Z,3.73
2016-12-21T11:58:58.396Z,3.74
2016-12-21T12:00:12.984Z,3.75
2016-12-21T12:01:28.043Z,3.78
2016-12-21T12:02:42.351Z,3.82
2016-12-21T12:03:57.315Z,3.87
2016-12-21T12:05:11.376Z,3.89
2016-12-21T12:06:26.913Z,3.94
2016-12-21T12:07:42.933Z,3.98
2016-12-21T12:08:58.878Z,4
2016-12-21T12:10:15.123Z,4
2016-12-21T12:11:30.604Z,4.02
2016-12-21T12:12:47.457Z,4.02
2016-12-21T12:14:04.206Z,3.99
2016-12-21T12:15:20.001Z,3.97
2016-12-21T12:16:34.644Z,3.93
2016-12-21T12:17:50.070Z,3.91
2016-12-21T12:19:07.347Z,3.91
2016-12-21T12:20:28.628Z,3.94
2016-12-21T12:21:44.965Z,3.96
2016-12-21T12:23:00.753Z,3.97
2016-12-21T12:24:17.748Z,3.99
2016-12-21T12:25:33.796Z,3.98
2016-12-21T12:26:49.433Z,3.98
2016-12-21T12:28:05.717Z,3.97
2016-12-21T12:29:23.720Z,3.98
2016-12-21T12:30:40.327Z,3.97
2016-12-21T12:31:56.478Z,3.95
2016-12-21T12:33:12.296Z,3.95
2016-12-21T12:34:27.932Z,3.94
2016-12-21T12:35:43.163Z,3.93
2016-12-21T12:36:57.055Z,3.92
2016-12-21T12:38:11.871Z,3.91
2016-12-21T12:39:27.199Z,3.9
2016-12-21T12:40:41.298Z,3.89
2016-12-21T12:41:55.913Z,3.88
2016-12-21T12:43:09.848Z,3.89
2016-12-21T12:44:24.419Z,3.9
2016-12-21T12:45:38.685Z,3.92
2016-12-21T12:46:52.738Z,3.92
2016-12-21T12:48:07.064Z,3.93
2016-12-21T12:49:21.026Z,3.9
2016-12-21T12:50:35.527Z,3.89
2016-12-21T12:51:50.846Z,3.85
2016-12-21T12:53:06.189Z,3.82
2016-12-21T12:54:21.750Z,3.78
2016-12-21T12:55:36.777Z,3.78
2016-12-21T12:56:50.973Z,3.76
2016-12-21T12:58:05.550Z,3.75
2016-12-21T12:59:20.153Z,3.75
2016-12-21T13:00:35.419Z,3.75
2016-12-21T13:01:49.615Z,3.76
2016-12-21T13:03:04.887Z,3.8
2016-12-21T13:04:19.543Z,3.83
2016-12-21T13:05:33.537Z,3.84
2016-12-21T13:06:47.780Z,3.85
2016-12-21T13:10:15.357Z,3.84
2016-12-21T13:11:29.697Z,3.83
2016-12-21T13:12:43.930Z,3.81
2016-12-21T13:13:59.661Z,3.82
2016-12-21T13:15:13.940Z,3.82
2016-12-21T13:16:32.236Z,3.81
2016-12-21T13:17:51.442Z,3.8
2016-12-21T13:20:57.004Z,3.78
2016-12-21T13:22:16.954Z,3.76
2016-12-21T13:23:36.077Z,3.77
2016-12-21T13:24:53.923Z,3.75
2016-12-21T13:26:10.724Z,3.76
2016-12-21T13:27:29.145Z,3.76
2016-12-21T13:28:45.828Z,3.78
2016-12-21T13:30:03.476Z,3.8
2016-12-21T13:31:23.855Z,3.83
2016-12-21T13:32:43.335Z,3.85
2016-12-21T13:33:59.510Z,3.88
2016-12-21T13:35:14.153Z,3.9
2016-12-21T13:36:30.165Z,3.92
2016-12-21T13:37:50.749Z,3.94
2016-12-21T13:39:27.755Z,3.93
2016-12-21T13:40:47.109Z,3.92
2016-12-21T13:42:20.170Z,3.92
2016-12-21T13:43:37.396Z,3.92
2016-12-21T13:44:53.899Z,3.9
2016-12-21T13:46:09.242Z,3.87
2016-12-21T13:47:29.401Z,3.85
2016-12-21T13:48:48.158Z,3.8
2016-12-21T13:50:09.336Z,3.73
2016-12-21T13:51:42.317Z,3.7
2016-12-21T13:52:58.835Z,3.69
2016-12-21T13:54:13.576Z,3.68
2016-12-21T13:55:28.463Z,3.66
2016-12-21T13:56:42.824Z,3.67
2016-12-21T13:57:57.687Z,3.66
2016-12-21T13:59:12.179Z,3.66
2016-12-21T14:00:26.736Z,3.67
2016-12-21T14:01:41.330Z,3.68
2016-12-21T14:02:55.606Z,3.65
2016-12-21T14:04:10.816Z,3.62
2016-12-21T14:05:27.480Z,3.6
2016-12-21T14:06:43.131Z,3.58
2016-12-21T14:07:57.663Z,3.57
2016-12-21T14:09:11.456Z,3.57
2016-12-21T14:10:26.870Z,3.58
2016-12-21T14:11:41.268Z,3.56
2016-12-21T14:12:55.678Z,3.54
2016-12-21T14:14:10.031Z,3.54
2016-12-21T14:15:23.722Z,3.57
2016-12-21T14:16:38.582Z,3.58
2016-12-21T14:17:53.241Z,3.58
2016-12-21T14:19:08.264Z,3.6
2016-12-21T14:20:22.535Z,3.59
2016-12-21T14:21:37.362Z,3.61
2016-12-21T14:22:52.297Z,3.63
2016-12-21T14:25:34.784Z,3.66
2016-12-21T14:26:48.705Z,3.67
2016-12-21T14:28:02.805Z,3.69
2016-12-21T14:29:16.936Z,3.69
2016-12-21T14:30:30.897Z,3.64
2016-12-21T14:31:44.884Z,3.61
2016-12-21T14:32:58.591Z,3.59
2016-12-21T14:34:12.724Z,3.61
2016-12-21T14:35:26.802Z,3.61
2016-12-21T14:36:40.504Z,3.61
2016-12-21T14:37:54.786Z,3.6
2016-12-21T14:39:08.746Z,3.6
2016-12-21T14:40:22.838Z,3.59
2016-12-21T14:41:37.506Z,3.59
2016-12-21T14:42:52.314Z,3.58
2016-12-21T14:44:06.876Z,3.59
2016-12-21T14:45:22.704Z,3.62
2016-12-21T14:46:36.948Z,3.66
2016-12-21T14:47:51.807Z,3.7
2016-12-21T14:49:05.637Z,3.71
2016-12-21T14:50:20.040Z,3.74
2016-12-21T14:51:35.148Z,3.76
2016-12-21T14:52:48.873Z,3.79
2016-12-21T14:54:03.868Z,3.82
2016-12-21T14:55:18.244Z,3.85
2016-12-21T14:56:32.642Z,3.88
2016-12-21T14:57:46.650Z,3.9
2016-12-21T14:59:01.267Z,3.91
2016-12-21T15:00:15.576Z,3.91
2016-12-21T15:01:30.145Z,3.93
2016-12-21T15:02:43.922Z,3.93
2016-12-21T15:03:58.008Z,3.94
2016-12-21T15:05:12.951Z,3.96
2016-12-21T15:06:27.350Z,3.97
2016-12-21T15:07:43.835Z,3.95
2016-12-21T15:08:57.970Z,3.95
2016-12-21T15:10:12.043Z,3.95
2016-12-21T15:11:26.074Z,3.96
2016-12-21T15:12:41.917Z,3.96
2016-12-21T15:13:56.694Z,3.92
2016-12-21T15:15:10.846Z,3.9
2016-12-21T15:16:24.528Z,3.89
2016-12-21T15:17:38.313Z,3.86
2016-12-21T15:18:52.719Z,3.85
2016-12-21T15:20:06.423Z,3.82
2016-12-21T15:21:20.660Z,3.79
2016-12-21T15:22:34.717Z,3.77
2016-12-21T15:23:49.742Z,3.73
2016-12-21T15:25:03.894Z,3.71
2016-12-21T15:26:18.750Z,3.69
2016-12-21T15:27:33.481Z,3.65
2016-12-21T15:28:47.559Z,3.63
2016-12-21T15:30:01.312Z,3.61
2016-12-21T15:31:15.876Z,3.58
2016-12-21T15:32:30.067Z,3.55
2016-12-21T15:33:44.400Z,3.53
2016-12-21T15:34:58.468Z,3.52
2016-12-21T15:36:13.007Z,3.49
2016-12-21T15:37:27.292Z,3.45
2016-12-21T15:38:41.129Z,3.43
2016-12-21T15:39:55.895Z,3.4
2016-12-21T15:41:24.459Z,3.39
2016-12-21T15:42:38.716Z,3.36
2016-12-21T15:43:52.434Z,3.34
2016-12-21T15:45:07.230Z,3.34
2016-12-21T15:46:21.536Z,3.36
2016-12-21T15:47:35.939Z,3.38
2016-12-21T15:48:50.547Z,3.42
2016-12-21T15:50:05.080Z,3.43
2016-12-21T15:51:19.906Z,3.44
2016-12-21T15:52:34.531Z,3.43
2016-12-21T15:53:48.579Z,3.45
2016-12-21T15:55:03.133Z,3.45
2016-12-21T15:56:32.157Z,3.49
2016-12-21T15:57:46.249Z,3.5
2016-12-21T15:59:00.320Z,3.51
2016-12-21T16:00:14.862Z,3.55
2016-12-21T16:01:29.361Z,3.58
2016-12-21T16:02:43.037Z,3.63
2016-12-21T16:03:57.508Z,3.68
2016-12-21T16:05:11.227Z,3.73
2016-12-21T16:06:25.435Z,3.77
2016-12-21T16:07:40.024Z,3.83
2016-12-21T16:08:53.860Z,3.86
2016-12-21T16:10:08.924Z,3.92
2016-12-21T16:11:23.035Z,3.96
2016-12-21T16:12:36.858Z,3.98
2016-12-21T16:13:51.430Z,3.99
2016-12-21T16:15:05.506Z,4
2016-12-21T16:16:19.202Z,4.01
2016-12-21T16:17:32.937Z,4.03
2016-12-21T16:18:46.907Z,4.05
2016-12-21T16:20:01.260Z,4.05
2016-12-21T16:21:15.306Z,4.02
2016-12-21T16:22:29.027Z,3.99
2016-12-21T16:23:42.790Z,3.97
2016-12-21T16:24:59.351Z,3.93
2016-12-21T16:26:13.391Z,3.88
2016-12-21T16:27:28.466Z,3.83
2016-12-21T16:28:42.914Z,3.79
2016-12-21T16:29:56.974Z,3.75
2016-12-21T16:31:11.607Z,3.72
2016-12-21T16:32:26.186Z,3.69
2016-12-21T16:33:40.661Z,3.67
2016-12-21T16:34:55.086Z,3.63
2016-12-21T16:36:09.154Z,3.61
2016-12-21T16:37:23.653Z,3.59
2016-12-21T16:38:37.871Z,3.56
2016-12-21T16:39:51.956Z,3.53
2016-12-21T16:41:05.816Z,3.5
2016-12-21T16:42:20.775Z,3.48
2016-12-21T16:43:35.710Z,3.46
2016-12-21T16:44:50.486Z,3.43
2016-12-21T16:46:04.722Z,3.41
2016-12-21T16:47:19.148Z,3.39
2016-12-21T16:48:33.225Z,3.39
2016-12-21T16:49:47.769Z,3.4
2016-12-21T16:51:02.003Z,3.42
2016-12-21T16:52:16.397Z,3.46
2016-12-21T16:53:30.444Z,3.49
2016-12-21T16:54:44.507Z,3.49
2016-12-21T16:55:58.571Z,3.52
2016-12-21T16:57:13.764Z,3.54
2016-12-21T16:58:43.501Z,3.54
2016-12-21T16:59:58.044Z,3.52
2016-12-21T17:01:12.089Z,3.51
2016-12-21T17:02:27.126Z,3.52
2016-12-21T17:03:41.174Z,3.51
2016-12-21T17:04:55.820Z,3.51
2016-12-21T17:06:10.030Z,3.51
2016-12-21T17:07:24.520Z,3.5
2016-12-21T17:08:38.917Z,3.48
2016-12-21T17:09:52.918Z,3.47
2016-12-21T17:11:07.272Z,3.47
2016-12-21T17:12:21.923Z,3.48
2016-12-21T17:13:36.523Z,3.49
2016-12-21T17:14:50.555Z,3.5
2016-12-21T17:16:04.568Z,3.54